sensor_id;sensor_type;location;lat;lon;timestamp;P1;durP1;ratioP1;P2;durP2;ratioP2
23159;SDS011;11748;50.844;4.396;2022-10-23T00:02:24;4.00;;;2.00;;
23159;SDS011;11748;50.844;4.396;2022-10-23T00:04:50;5.20;;;1.98;;
23159;SDS011;11748;50.844;4.396;2022-10-23T00:07:16;5.15;;;2.03;;
23159;SDS011;11748;50.844;4.396;2022-10-23T00:09:42;6.72;;;1.85;;
23159;SDS011;11748;50.844;4.396;2022-10-23T00:12:08;5.32;;;2.03;;
23159;SDS011;11748;50.844;4.396;2022-10-23T00:14:34;6.63;;;2.05;;
23159;SDS011;11748;50.844;4.396;2022-10-23T00:17:00;4.85;;;1.92;;
23159;SDS011;11748;50.844;4.396;2022-10-23T00:19:26;5.00;;;1.70;;
23159;SDS011;11748;50.844;4.396;2022-10-23T00:21:51;4.43;;;1.92;;
23159;SDS011;11748;50.844;4.396;2022-10-23T00:24:17;6.82;;;1.52;;
23159;SDS011;11748;50.844;4.396;2022-10-23T00:26:43;7.18;;;1.88;;
23159;SDS011;11748;50.844;4.396;2022-10-23T00:29:09;5.13;;;1.70;;
23159;SDS011;11748;50.844;4.396;2022-10-23T00:31:35;4.55;;;2.00;;
23159;SDS011;11748;50.844;4.396;2022-10-23T00:34:01;4.90;;;2.08;;
23159;SDS011;11748;50.844;4.396;2022-10-23T00:36:28;5.03;;;1.70;;
23159;SDS011;11748;50.844;4.396;2022-10-23T00:38:54;7.00;;;2.10;;
23159;SDS011;11748;50.844;4.396;2022-10-23T00:41:23;4.90;;;2.22;;
23159;SDS011;11748;50.844;4.396;2022-10-23T00:44:00;6.25;;;2.05;;
23159;SDS011;11748;50.844;4.396;2022-10-23T00:46:30;6.28;;;1.90;;
23159;SDS011;11748;50.844;4.396;2022-10-23T00:48:56;7.57;;;1.83;;
23159;SDS011;11748;50.844;4.396;2022-10-23T00:51:23;5.40;;;2.20;;
23159;SDS011;11748;50.844;4.396;2022-10-23T00:53:53;5.75;;;2.17;;
23159;SDS011;11748;50.844;4.396;2022-10-23T00:56:21;5.53;;;1.80;;
23159;SDS011;11748;50.844;4.396;2022-10-23T00:58:49;5.43;;;1.98;;
23159;SDS011;11748;50.844;4.396;2022-10-23T01:01:15;5.97;;;2.25;;
23159;SDS011;11748;50.844;4.396;2022-10-23T01:03:43;8.20;;;2.20;;
23159;SDS011;11748;50.844;4.396;2022-10-23T01:08:49;5.38;;;2.38;;
23159;SDS011;11748;50.844;4.396;2022-10-23T01:14:39;5.78;;;2.38;;
23159;SDS011;11748;50.844;4.396;2022-10-23T01:17:18;3.85;;;1.52;;
23159;SDS011;11748;50.844;4.396;2022-10-23T01:20:10;5.32;;;1.80;;
23159;SDS011;11748;50.844;4.396;2022-10-23T01:25:12;9.38;;;1.95;;
23159;SDS011;11748;50.844;4.396;2022-10-23T01:28:08;7.43;;;1.63;;
23159;SDS011;11748;50.844;4.396;2022-10-23T01:30:39;3.70;;;1.75;;
23159;SDS011;11748;50.844;4.396;2022-10-23T01:33:20;5.78;;;1.73;;
23159;SDS011;11748;50.844;4.396;2022-10-23T01:35:52;4.50;;;1.70;;
23159;SDS011;11748;50.844;4.396;2022-10-23T01:38:34;5.20;;;1.83;;
23159;SDS011;11748;50.844;4.396;2022-10-23T01:43:45;4.85;;;1.63;;
23159;SDS011;11748;50.844;4.396;2022-10-23T01:46:16;6.45;;;2.08;;
23159;SDS011;11748;50.844;4.396;2022-10-23T01:48:46;6.18;;;1.85;;
23159;SDS011;11748;50.844;4.396;2022-10-23T01:51:17;8.52;;;3.13;;
23159;SDS011;11748;50.844;4.396;2022-10-23T01:53:45;3.28;;;1.98;;
23159;SDS011;11748;50.844;4.396;2022-10-23T01:56:17;6.30;;;1.90;;
23159;SDS011;11748;50.844;4.396;2022-10-23T01:58:46;4.15;;;2.00;;
23159;SDS011;11748;50.844;4.396;2022-10-23T02:01:15;5.70;;;2.20;;
23159;SDS011;11748;50.844;4.396;2022-10-23T02:03:44;8.10;;;2.15;;
23159;SDS011;11748;50.844;4.396;2022-10-23T02:06:12;3.45;;;1.85;;
23159;SDS011;11748;50.844;4.396;2022-10-23T02:08:37;6.75;;;1.80;;
23159;SDS011;11748;50.844;4.396;2022-10-23T02:13:45;7.60;;;1.75;;
23159;SDS011;11748;50.844;4.396;2022-10-23T02:16:23;5.22;;;2.03;;
23159;SDS011;11748;50.844;4.396;2022-10-23T02:22:04;5.80;;;1.77;;
23159;SDS011;11748;50.844;4.396;2022-10-23T02:24:35;4.60;;;1.90;;
23159;SDS011;11748;50.844;4.396;2022-10-23T02:27:10;4.60;;;1.90;;
23159;SDS011;11748;50.844;4.396;2022-10-23T02:29:43;8.27;;;1.92;;
23159;SDS011;11748;50.844;4.396;2022-10-23T02:32:14;5.85;;;1.73;;
23159;SDS011;11748;50.844;4.396;2022-10-23T02:34:43;5.15;;;1.70;;
23159;SDS011;11748;50.844;4.396;2022-10-23T02:37:08;6.82;;;2.15;;
23159;SDS011;11748;50.844;4.396;2022-10-23T02:39:34;7.10;;;2.00;;
23159;SDS011;11748;50.844;4.396;2022-10-23T02:52:58;4.18;;;1.50;;
23159;SDS011;11748;50.844;4.396;2022-10-23T03:01:42;5.05;;;1.42;;
23159;SDS011;11748;50.844;4.396;2022-10-23T03:04:13;4.05;;;1.65;;
23159;SDS011;11748;50.844;4.396;2022-10-23T03:06:41;6.00;;;1.85;;
23159;SDS011;11748;50.844;4.396;2022-10-23T03:09:07;6.90;;;1.67;;
23159;SDS011;11748;50.844;4.396;2022-10-23T03:11:33;5.22;;;1.60;;
23159;SDS011;11748;50.844;4.396;2022-10-23T03:13:59;6.05;;;1.48;;
23159;SDS011;11748;50.844;4.396;2022-10-23T03:16:26;7.95;;;1.88;;
23159;SDS011;11748;50.844;4.396;2022-10-23T03:18:52;4.93;;;1.65;;
23159;SDS011;11748;50.844;4.396;2022-10-23T03:21:18;4.22;;;1.70;;
23159;SDS011;11748;50.844;4.396;2022-10-23T03:23:43;3.22;;;1.50;;
23159;SDS011;11748;50.844;4.396;2022-10-23T03:26:09;5.03;;;1.60;;
23159;SDS011;11748;50.844;4.396;2022-10-23T03:28:35;4.32;;;1.67;;
23159;SDS011;11748;50.844;4.396;2022-10-23T03:31:01;9.63;;;2.22;;
23159;SDS011;11748;50.844;4.396;2022-10-23T03:33:28;7.13;;;1.80;;
23159;SDS011;11748;50.844;4.396;2022-10-23T03:35:54;8.57;;;1.83;;
23159;SDS011;11748;50.844;4.396;2022-10-23T03:38:20;6.40;;;1.60;;
23159;SDS011;11748;50.844;4.396;2022-10-23T03:40:45;10.43;;;1.77;;
23159;SDS011;11748;50.844;4.396;2022-10-23T03:43:11;4.68;;;1.58;;
23159;SDS011;11748;50.844;4.396;2022-10-23T03:45:37;2.50;;;1.77;;
23159;SDS011;11748;50.844;4.396;2022-10-23T03:48:04;3.55;;;1.60;;
23159;SDS011;11748;50.844;4.396;2022-10-23T03:50:30;7.97;;;1.70;;
23159;SDS011;11748;50.844;4.396;2022-10-23T03:52:55;6.25;;;1.75;;
23159;SDS011;11748;50.844;4.396;2022-10-23T03:55:21;4.10;;;1.40;;
23159;SDS011;11748;50.844;4.396;2022-10-23T03:57:47;5.68;;;2.20;;
23159;SDS011;11748;50.844;4.396;2022-10-23T04:00:13;5.93;;;1.65;;
23159;SDS011;11748;50.844;4.396;2022-10-23T04:02:40;10.02;;;2.15;;
23159;SDS011;11748;50.844;4.396;2022-10-23T04:05:06;5.07;;;1.80;;
23159;SDS011;11748;50.844;4.396;2022-10-23T04:07:32;3.33;;;1.75;;
23159;SDS011;11748;50.844;4.396;2022-10-23T04:09:58;5.60;;;1.98;;
23159;SDS011;11748;50.844;4.396;2022-10-23T04:12:23;5.32;;;1.67;;
23159;SDS011;11748;50.844;4.396;2022-10-23T04:14:49;6.90;;;2.03;;
23159;SDS011;11748;50.844;4.396;2022-10-23T04:17:14;6.60;;;2.30;;
23159;SDS011;11748;50.844;4.396;2022-10-23T04:19:40;9.25;;;1.63;;
23159;SDS011;11748;50.844;4.396;2022-10-23T04:22:06;7.82;;;2.38;;
23159;SDS011;11748;50.844;4.396;2022-10-23T04:24:32;4.50;;;2.08;;
23159;SDS011;11748;50.844;4.396;2022-10-23T04:26:57;3.45;;;2.00;;
23159;SDS011;11748;50.844;4.396;2022-10-23T04:29:23;6.90;;;2.65;;
23159;SDS011;11748;50.844;4.396;2022-10-23T04:31:49;6.13;;;2.13;;
23159;SDS011;11748;50.844;4.396;2022-10-23T04:34:16;4.65;;;2.22;;
23159;SDS011;11748;50.844;4.396;2022-10-23T04:36:42;6.60;;;2.30;;
23159;SDS011;11748;50.844;4.396;2022-10-23T04:39:08;3.03;;;2.10;;
23159;SDS011;11748;50.844;4.396;2022-10-23T04:41:34;7.78;;;2.15;;
23159;SDS011;11748;50.844;4.396;2022-10-23T04:44:02;7.00;;;1.83;;
23159;SDS011;11748;50.844;4.396;2022-10-23T04:46:28;5.47;;;2.20;;
23159;SDS011;11748;50.844;4.396;2022-10-23T04:48:54;5.00;;;2.13;;
23159;SDS011;11748;50.844;4.396;2022-10-23T04:51:19;5.22;;;1.90;;
23159;SDS011;11748;50.844;4.396;2022-10-23T04:53:45;9.65;;;3.92;;
23159;SDS011;11748;50.844;4.396;2022-10-23T04:56:14;3.55;;;1.92;;
23159;SDS011;11748;50.844;4.396;2022-10-23T04:58:40;5.15;;;2.10;;
23159;SDS011;11748;50.844;4.396;2022-10-23T05:01:07;12.35;;;2.63;;
23159;SDS011;11748;50.844;4.396;2022-10-23T05:03:34;4.53;;;2.58;;
23159;SDS011;11748;50.844;4.396;2022-10-23T05:06:01;6.60;;;2.38;;
23159;SDS011;11748;50.844;4.396;2022-10-23T05:08:27;5.32;;;2.10;;
23159;SDS011;11748;50.844;4.396;2022-10-23T05:10:53;5.30;;;2.25;;
23159;SDS011;11748;50.844;4.396;2022-10-23T05:13:19;8.15;;;2.22;;
23159;SDS011;11748;50.844;4.396;2022-10-23T05:15:51;5.45;;;2.13;;
23159;SDS011;11748;50.844;4.396;2022-10-23T05:18:23;6.80;;;2.08;;
23159;SDS011;11748;50.844;4.396;2022-10-23T05:21:01;4.03;;;2.33;;
23159;SDS011;11748;50.844;4.396;2022-10-23T05:23:34;5.70;;;2.10;;
23159;SDS011;11748;50.844;4.396;2022-10-23T05:26:02;7.60;;;2.35;;
23159;SDS011;11748;50.844;4.396;2022-10-23T05:28:28;6.60;;;2.45;;
23159;SDS011;11748;50.844;4.396;2022-10-23T05:30:54;6.47;;;2.20;;
23159;SDS011;11748;50.844;4.396;2022-10-23T05:33:23;6.07;;;2.08;;
23159;SDS011;11748;50.844;4.396;2022-10-23T05:35:49;4.75;;;1.95;;
23159;SDS011;11748;50.844;4.396;2022-10-23T05:38:15;5.18;;;1.83;;
23159;SDS011;11748;50.844;4.396;2022-10-23T05:40:41;4.45;;;2.10;;
23159;SDS011;11748;50.844;4.396;2022-10-23T05:43:06;3.83;;;1.77;;
23159;SDS011;11748;50.844;4.396;2022-10-23T05:45:32;3.13;;;1.90;;
23159;SDS011;11748;50.844;4.396;2022-10-23T05:47:58;3.30;;;1.80;;
23159;SDS011;11748;50.844;4.396;2022-10-23T05:50:24;4.65;;;1.77;;
23159;SDS011;11748;50.844;4.396;2022-10-23T05:52:49;5.65;;;2.03;;
23159;SDS011;11748;50.844;4.396;2022-10-23T05:55:15;5.10;;;2.17;;
23159;SDS011;11748;50.844;4.396;2022-10-23T05:57:41;5.50;;;1.90;;
23159;SDS011;11748;50.844;4.396;2022-10-23T06:00:07;5.88;;;2.17;;
23159;SDS011;11748;50.844;4.396;2022-10-23T06:02:33;7.35;;;2.40;;
23159;SDS011;11748;50.844;4.396;2022-10-23T06:04:59;5.43;;;2.15;;
23159;SDS011;11748;50.844;4.396;2022-10-23T06:07:25;6.45;;;2.22;;
23159;SDS011;11748;50.844;4.396;2022-10-23T06:09:52;4.03;;;1.77;;
23159;SDS011;11748;50.844;4.396;2022-10-23T06:12:19;5.97;;;1.92;;
23159;SDS011;11748;50.844;4.396;2022-10-23T06:14:45;4.57;;;1.90;;
23159;SDS011;11748;50.844;4.396;2022-10-23T06:17:11;4.35;;;1.52;;
23159;SDS011;11748;50.844;4.396;2022-10-23T06:19:37;5.70;;;1.60;;
23159;SDS011;11748;50.844;4.396;2022-10-23T06:22:03;4.00;;;1.70;;
23159;SDS011;11748;50.844;4.396;2022-10-23T06:24:29;5.85;;;1.35;;
23159;SDS011;11748;50.844;4.396;2022-10-23T06:26:55;3.80;;;1.55;;
23159;SDS011;11748;50.844;4.396;2022-10-23T06:29:21;5.20;;;1.90;;
23159;SDS011;11748;50.844;4.396;2022-10-23T06:31:47;3.28;;;1.60;;
23159;SDS011;11748;50.844;4.396;2022-10-23T06:34:12;5.40;;;1.50;;
23159;SDS011;11748;50.844;4.396;2022-10-23T06:36:38;3.92;;;1.95;;
23159;SDS011;11748;50.844;4.396;2022-10-23T06:39:04;6.60;;;2.13;;
23159;SDS011;11748;50.844;4.396;2022-10-23T06:41:30;4.63;;;1.80;;
23159;SDS011;11748;50.844;4.396;2022-10-23T06:43:56;5.95;;;2.00;;
23159;SDS011;11748;50.844;4.396;2022-10-23T06:46:22;2.92;;;1.58;;
23159;SDS011;11748;50.844;4.396;2022-10-23T06:48:47;12.13;;;1.70;;
23159;SDS011;11748;50.844;4.396;2022-10-23T06:51:14;8.95;;;1.92;;
23159;SDS011;11748;50.844;4.396;2022-10-23T06:53:41;2.30;;;1.77;;
23159;SDS011;11748;50.844;4.396;2022-10-23T06:56:07;4.47;;;1.58;;
23159;SDS011;11748;50.844;4.396;2022-10-23T06:58:35;7.78;;;2.17;;
23159;SDS011;11748;50.844;4.396;2022-10-23T07:01:03;4.57;;;1.45;;
23159;SDS011;11748;50.844;4.396;2022-10-23T07:03:30;2.80;;;1.83;;
23159;SDS011;11748;50.844;4.396;2022-10-23T07:06:00;6.53;;;1.65;;
23159;SDS011;11748;50.844;4.396;2022-10-23T07:08:27;7.05;;;1.90;;
23159;SDS011;11748;50.844;4.396;2022-10-23T07:10:53;4.85;;;1.85;;
23159;SDS011;11748;50.844;4.396;2022-10-23T07:13:19;3.97;;;1.83;;
23159;SDS011;11748;50.844;4.396;2022-10-23T07:15:46;4.57;;;1.77;;
23159;SDS011;11748;50.844;4.396;2022-10-23T07:18:12;5.43;;;1.40;;
23159;SDS011;11748;50.844;4.396;2022-10-23T07:20:40;4.07;;;1.73;;
23159;SDS011;11748;50.844;4.396;2022-10-23T07:23:06;5.97;;;1.65;;
23159;SDS011;11748;50.844;4.396;2022-10-23T07:25:33;4.78;;;1.42;;
23159;SDS011;11748;50.844;4.396;2022-10-23T07:27:58;8.57;;;1.73;;
23159;SDS011;11748;50.844;4.396;2022-10-23T07:30:24;3.17;;;1.40;;
23159;SDS011;11748;50.844;4.396;2022-10-23T07:32:50;6.72;;;1.60;;
23159;SDS011;11748;50.844;4.396;2022-10-23T07:35:16;4.25;;;1.70;;
23159;SDS011;11748;50.844;4.396;2022-10-23T07:37:42;8.77;;;1.83;;
23159;SDS011;11748;50.844;4.396;2022-10-23T07:40:08;3.63;;;2.05;;
23159;SDS011;11748;50.844;4.396;2022-10-23T07:42:34;3.08;;;1.58;;
23159;SDS011;11748;50.844;4.396;2022-10-23T07:45:00;3.50;;;1.60;;
23159;SDS011;11748;50.844;4.396;2022-10-23T07:47:25;5.47;;;2.17;;
23159;SDS011;11748;50.844;4.396;2022-10-23T07:49:51;5.68;;;1.95;;
23159;SDS011;11748;50.844;4.396;2022-10-23T07:52:17;3.92;;;1.42;;
23159;SDS011;11748;50.844;4.396;2022-10-23T07:54:42;7.18;;;1.95;;
23159;SDS011;11748;50.844;4.396;2022-10-23T07:57:09;3.67;;;1.25;;
23159;SDS011;11748;50.844;4.396;2022-10-23T07:59:36;5.32;;;1.50;;
23159;SDS011;11748;50.844;4.396;2022-10-23T08:02:01;4.55;;;1.50;;
23159;SDS011;11748;50.844;4.396;2022-10-23T08:04:27;3.35;;;1.60;;
23159;SDS011;11748;50.844;4.396;2022-10-23T08:06:53;3.15;;;1.27;;
23159;SDS011;11748;50.844;4.396;2022-10-23T08:09:20;7.28;;;1.42;;
23159;SDS011;11748;50.844;4.396;2022-10-23T08:11:46;3.92;;;1.70;;
23159;SDS011;11748;50.844;4.396;2022-10-23T08:14:12;4.60;;;1.60;;
23159;SDS011;11748;50.844;4.396;2022-10-23T08:16:38;5.28;;;1.70;;
23159;SDS011;11748;50.844;4.396;2022-10-23T08:19:04;7.82;;;2.05;;
23159;SDS011;11748;50.844;4.396;2022-10-23T08:21:34;6.00;;;1.80;;
23159;SDS011;11748;50.844;4.396;2022-10-23T08:24:00;3.00;;;1.20;;
23159;SDS011;11748;50.844;4.396;2022-10-23T08:26:26;4.80;;;1.65;;
23159;SDS011;11748;50.844;4.396;2022-10-23T08:28:58;6.38;;;2.05;;
23159;SDS011;11748;50.844;4.396;2022-10-23T08:31:24;6.28;;;1.48;;
23159;SDS011;11748;50.844;4.396;2022-10-23T08:33:50;6.55;;;1.90;;
23159;SDS011;11748;50.844;4.396;2022-10-23T08:36:17;6.25;;;2.17;;
23159;SDS011;11748;50.844;4.396;2022-10-23T08:38:48;4.07;;;1.83;;
23159;SDS011;11748;50.844;4.396;2022-10-23T08:41:37;6.80;;;1.75;;
23159;SDS011;11748;50.844;4.396;2022-10-23T08:46:49;4.13;;;1.73;;
23159;SDS011;11748;50.844;4.396;2022-10-23T08:52:18;4.05;;;1.88;;
23159;SDS011;11748;50.844;4.396;2022-10-23T08:57:21;5.70;;;1.90;;
23159;SDS011;11748;50.844;4.396;2022-10-23T08:59:59;4.85;;;1.80;;
23159;SDS011;11748;50.844;4.396;2022-10-23T09:02:31;8.30;;;2.28;;
23159;SDS011;11748;50.844;4.396;2022-10-23T09:05:13;7.65;;;1.88;;
23159;SDS011;11748;50.844;4.396;2022-10-23T09:18:56;8.15;;;2.42;;
23159;SDS011;11748;50.844;4.396;2022-10-23T09:21:26;7.65;;;2.55;;
23159;SDS011;11748;50.844;4.396;2022-10-23T09:23:52;6.40;;;3.70;;
23159;SDS011;11748;50.844;4.396;2022-10-23T09:26:18;7.43;;;2.75;;
23159;SDS011;11748;50.844;4.396;2022-10-23T09:28:48;8.18;;;2.65;;
23159;SDS011;11748;50.844;4.396;2022-10-23T09:31:16;4.30;;;1.95;;
23159;SDS011;11748;50.844;4.396;2022-10-23T09:33:53;3.03;;;1.83;;
23159;SDS011;11748;50.844;4.396;2022-10-23T09:36:21;13.23;;;2.78;;
23159;SDS011;11748;50.844;4.396;2022-10-23T09:38:50;7.18;;;1.98;;
23159;SDS011;11748;50.844;4.396;2022-10-23T09:46:46;3.97;;;1.98;;
23159;SDS011;11748;50.844;4.396;2022-10-23T09:49:37;7.97;;;2.67;;
23159;SDS011;11748;50.844;4.396;2022-10-23T09:54:46;6.57;;;2.65;;
23159;SDS011;11748;50.844;4.396;2022-10-23T09:59:53;5.00;;;2.38;;
23159;SDS011;11748;50.844;4.396;2022-10-23T10:02:32;8.82;;;2.45;;
23159;SDS011;11748;50.844;4.396;2022-10-23T10:05:10;5.22;;;2.45;;
23159;SDS011;11748;50.844;4.396;2022-10-23T10:10:44;6.30;;;2.63;;
23159;SDS011;11748;50.844;4.396;2022-10-23T10:13:24;7.53;;;3.05;;
23159;SDS011;11748;50.844;4.396;2022-10-23T10:15:57;5.45;;;2.70;;
23159;SDS011;11748;50.844;4.396;2022-10-23T10:23:50;3.35;;;2.17;;
23159;SDS011;11748;50.844;4.396;2022-10-23T10:32:00;15.25;;;3.00;;
23159;SDS011;11748;50.844;4.396;2022-10-23T10:37:16;9.23;;;2.75;;
23159;SDS011;11748;50.844;4.396;2022-10-23T10:51:21;5.30;;;2.13;;
23159;SDS011;11748;50.844;4.396;2022-10-23T10:56:28;10.50;;;2.40;;
23159;SDS011;11748;50.844;4.396;2022-10-23T10:59:01;6.03;;;2.25;;
23159;SDS011;11748;50.844;4.396;2022-10-23T11:01:41;5.38;;;2.25;;
23159;SDS011;11748;50.844;4.396;2022-10-23T11:07:10;4.07;;;2.20;;
23159;SDS011;11748;50.844;4.396;2022-10-23T11:09:40;5.55;;;2.35;;
23159;SDS011;11748;50.844;4.396;2022-10-23T11:12:13;11.20;;;2.42;;
23159;SDS011;11748;50.844;4.396;2022-10-23T11:14:44;6.53;;;2.53;;
23159;SDS011;11748;50.844;4.396;2022-10-23T11:17:13;6.68;;;2.40;;
23159;SDS011;11748;50.844;4.396;2022-10-23T11:19:46;8.25;;;2.20;;
23159;SDS011;11748;50.844;4.396;2022-10-23T11:36:45;9.40;;;3.10;;
23159;SDS011;11748;50.844;4.396;2022-10-23T11:39:23;4.72;;;2.58;;
23159;SDS011;11748;50.844;4.396;2022-10-23T11:42:13;9.32;;;2.20;;
23159;SDS011;11748;50.844;4.396;2022-10-23T11:52:38;6.68;;;2.05;;
23159;SDS011;11748;50.844;4.396;2022-10-23T11:55:18;6.57;;;2.50;;
23159;SDS011;11748;50.844;4.396;2022-10-23T12:00:33;5.10;;;2.03;;
23159;SDS011;11748;50.844;4.396;2022-10-23T12:03:03;4.07;;;1.60;;
23159;SDS011;11748;50.844;4.396;2022-10-23T12:05:31;3.13;;;1.70;;
23159;SDS011;11748;50.844;4.396;2022-10-23T12:08:02;5.93;;;2.30;;
23159;SDS011;11748;50.844;4.396;2022-10-23T12:10:32;8.27;;;2.80;;
23159;SDS011;11748;50.844;4.396;2022-10-23T12:13:04;8.88;;;2.92;;
23159;SDS011;11748;50.844;4.396;2022-10-23T12:15:53;8.73;;;3.10;;
23159;SDS011;11748;50.844;4.396;2022-10-23T12:18:19;6.82;;;2.67;;
23159;SDS011;11748;50.844;4.396;2022-10-23T12:20:47;5.95;;;2.55;;
23159;SDS011;11748;50.844;4.396;2022-10-23T12:23:34;4.22;;;2.13;;
23159;SDS011;11748;50.844;4.396;2022-10-23T12:33:53;6.57;;;2.03;;
23159;SDS011;11748;50.844;4.396;2022-10-23T12:38:59;4.78;;;2.22;;
23159;SDS011;11748;50.844;4.396;2022-10-23T12:41:29;5.97;;;2.00;;
23159;SDS011;11748;50.844;4.396;2022-10-23T12:43:58;4.22;;;2.50;;
23159;SDS011;11748;50.844;4.396;2022-10-23T12:46:33;4.50;;;2.40;;
23159;SDS011;11748;50.844;4.396;2022-10-23T12:49:10;7.68;;;2.88;;
23159;SDS011;11748;50.844;4.396;2022-10-23T12:51:38;10.25;;;2.30;;
23159;SDS011;11748;50.844;4.396;2022-10-23T12:54:13;8.82;;;2.45;;
23159;SDS011;11748;50.844;4.396;2022-10-23T12:56:40;6.57;;;2.50;;
23159;SDS011;11748;50.844;4.396;2022-10-23T12:59:13;5.38;;;2.30;;
23159;SDS011;11748;50.844;4.396;2022-10-23T13:01:44;4.60;;;2.28;;
23159;SDS011;11748;50.844;4.396;2022-10-23T13:04:12;4.13;;;2.20;;
23159;SDS011;11748;50.844;4.396;2022-10-23T13:06:46;10.65;;;2.65;;
23159;SDS011;11748;50.844;4.396;2022-10-23T13:17:40;5.30;;;2.25;;
23159;SDS011;11748;50.844;4.396;2022-10-23T13:25:31;4.57;;;2.20;;
23159;SDS011;11748;50.844;4.396;2022-10-23T13:31:06;8.13;;;2.85;;
23159;SDS011;11748;50.844;4.396;2022-10-23T13:36:23;6.75;;;2.28;;
23159;SDS011;11748;50.844;4.396;2022-10-23T13:41:23;4.03;;;1.85;;
23159;SDS011;11748;50.844;4.396;2022-10-23T13:43:50;8.98;;;2.25;;
23159;SDS011;11748;50.844;4.396;2022-10-23T13:46:17;4.97;;;2.53;;
23159;SDS011;11748;50.844;4.396;2022-10-23T13:48:45;9.40;;;2.60;;
23159;SDS011;11748;50.844;4.396;2022-10-23T13:51:12;4.18;;;1.70;;
23159;SDS011;11748;50.844;4.396;2022-10-23T13:53:43;6.63;;;2.05;;
23159;SDS011;11748;50.844;4.396;2022-10-23T13:56:10;5.95;;;2.10;;
23159;SDS011;11748;50.844;4.396;2022-10-23T13:58:37;7.82;;;2.22;;
23159;SDS011;11748;50.844;4.396;2022-10-23T14:01:03;5.50;;;2.03;;
23159;SDS011;11748;50.844;4.396;2022-10-23T14:03:30;5.32;;;2.03;;
23159;SDS011;11748;50.844;4.396;2022-10-23T14:05:56;6.18;;;2.20;;
23159;SDS011;11748;50.844;4.396;2022-10-23T14:08:22;7.32;;;2.30;;
23159;SDS011;11748;50.844;4.396;2022-10-23T14:10:47;7.72;;;2.85;;
23159;SDS011;11748;50.844;4.396;2022-10-23T14:13:13;3.97;;;2.00;;
23159;SDS011;11748;50.844;4.396;2022-10-23T14:15:39;6.72;;;2.35;;
23159;SDS011;11748;50.844;4.396;2022-10-23T14:18:05;5.78;;;2.35;;
23159;SDS011;11748;50.844;4.396;2022-10-23T14:20:31;6.00;;;2.05;;
23159;SDS011;11748;50.844;4.396;2022-10-23T14:22:56;5.60;;;2.67;;
23159;SDS011;11748;50.844;4.396;2022-10-23T14:25:22;6.88;;;3.47;;
23159;SDS011;11748;50.844;4.396;2022-10-23T14:27:48;3.55;;;2.03;;
23159;SDS011;11748;50.844;4.396;2022-10-23T14:30:13;3.90;;;2.00;;
23159;SDS011;11748;50.844;4.396;2022-10-23T14:32:39;11.50;;;2.25;;
23159;SDS011;11748;50.844;4.396;2022-10-23T14:35:05;7.78;;;3.30;;
23159;SDS011;11748;50.844;4.396;2022-10-23T14:37:31;7.47;;;2.80;;
23159;SDS011;11748;50.844;4.396;2022-10-23T14:39:58;7.65;;;2.75;;
23159;SDS011;11748;50.844;4.396;2022-10-23T14:42:24;7.30;;;2.65;;
23159;SDS011;11748;50.844;4.396;2022-10-23T14:44:51;6.70;;;2.45;;
23159;SDS011;11748;50.844;4.396;2022-10-23T14:47:17;7.40;;;2.83;;
23159;SDS011;11748;50.844;4.396;2022-10-23T14:49:44;8.48;;;2.90;;
23159;SDS011;11748;50.844;4.396;2022-10-23T14:52:14;5.82;;;2.40;;
23159;SDS011;11748;50.844;4.396;2022-10-23T14:54:40;6.32;;;2.70;;
23159;SDS011;11748;50.844;4.396;2022-10-23T14:57:06;5.90;;;3.03;;
23159;SDS011;11748;50.844;4.396;2022-10-23T14:59:32;7.47;;;3.00;;
23159;SDS011;11748;50.844;4.396;2022-10-23T15:01:58;9.68;;;2.63;;
23159;SDS011;11748;50.844;4.396;2022-10-23T15:04:24;6.72;;;3.05;;
23159;SDS011;11748;50.844;4.396;2022-10-23T15:06:50;8.52;;;3.25;;
23159;SDS011;11748;50.844;4.396;2022-10-23T15:09:16;5.22;;;2.97;;
23159;SDS011;11748;50.844;4.396;2022-10-23T15:11:44;10.50;;;3.28;;
23159;SDS011;11748;50.844;4.396;2022-10-23T15:14:09;5.70;;;2.72;;
23159;SDS011;11748;50.844;4.396;2022-10-23T15:16:36;7.53;;;3.17;;
23159;SDS011;11748;50.844;4.396;2022-10-23T15:19:06;5.82;;;3.13;;
23159;SDS011;11748;50.844;4.396;2022-10-23T15:21:32;7.45;;;3.10;;
23159;SDS011;11748;50.844;4.396;2022-10-23T15:23:59;5.68;;;2.45;;
23159;SDS011;11748;50.844;4.396;2022-10-23T15:26:25;5.82;;;2.50;;
23159;SDS011;11748;50.844;4.396;2022-10-23T15:28:52;5.82;;;2.60;;
23159;SDS011;11748;50.844;4.396;2022-10-23T15:31:23;10.82;;;2.50;;
23159;SDS011;11748;50.844;4.396;2022-10-23T15:34:14;6.88;;;2.30;;
23159;SDS011;11748;50.844;4.396;2022-10-23T15:36:42;5.88;;;2.58;;
23159;SDS011;11748;50.844;4.396;2022-10-23T15:39:09;5.80;;;2.85;;
23159;SDS011;11748;50.844;4.396;2022-10-23T15:41:37;3.90;;;1.92;;
23159;SDS011;11748;50.844;4.396;2022-10-23T15:44:04;4.72;;;2.00;;
23159;SDS011;11748;50.844;4.396;2022-10-23T15:46:32;7.32;;;2.13;;
23159;SDS011;11748;50.844;4.396;2022-10-23T15:48:58;6.55;;;2.33;;
23159;SDS011;11748;50.844;4.396;2022-10-23T15:51:24;6.72;;;2.38;;
23159;SDS011;11748;50.844;4.396;2022-10-23T15:53:50;9.90;;;2.80;;
23159;SDS011;11748;50.844;4.396;2022-10-23T15:56:16;5.85;;;2.03;;
23159;SDS011;11748;50.844;4.396;2022-10-23T15:58:42;4.63;;;2.10;;
23159;SDS011;11748;50.844;4.396;2022-10-23T16:01:08;8.48;;;2.22;;
23159;SDS011;11748;50.844;4.396;2022-10-23T16:03:35;7.10;;;2.63;;
23159;SDS011;11748;50.844;4.396;2022-10-23T16:06:02;6.68;;;2.45;;
23159;SDS011;11748;50.844;4.396;2022-10-23T16:08:33;7.60;;;2.65;;
23159;SDS011;11748;50.844;4.396;2022-10-23T16:11:11;9.65;;;2.83;;
23159;SDS011;11748;50.844;4.396;2022-10-23T16:13:45;5.97;;;2.45;;
23159;SDS011;11748;50.844;4.396;2022-10-23T16:16:12;7.88;;;2.88;;
23159;SDS011;11748;50.844;4.396;2022-10-23T16:18:38;4.70;;;2.50;;
23159;SDS011;11748;50.844;4.396;2022-10-23T16:21:05;9.73;;;3.00;;
23159;SDS011;11748;50.844;4.396;2022-10-23T16:23:31;9.75;;;2.83;;
23159;SDS011;11748;50.844;4.396;2022-10-23T16:26:01;6.35;;;2.78;;
23159;SDS011;11748;50.844;4.396;2022-10-23T16:28:30;7.00;;;2.70;;
23159;SDS011;11748;50.844;4.396;2022-10-23T16:30:56;6.25;;;2.78;;
23159;SDS011;11748;50.844;4.396;2022-10-23T16:33:21;6.55;;;2.90;;
23159;SDS011;11748;50.844;4.396;2022-10-23T16:35:47;7.65;;;3.45;;
23159;SDS011;11748;50.844;4.396;2022-10-23T16:38:13;8.27;;;3.03;;
23159;SDS011;11748;50.844;4.396;2022-10-23T16:40:38;8.70;;;3.83;;
23159;SDS011;11748;50.844;4.396;2022-10-23T16:43:04;8.65;;;3.03;;
23159;SDS011;11748;50.844;4.396;2022-10-23T16:45:30;6.55;;;2.70;;
23159;SDS011;11748;50.844;4.396;2022-10-23T16:47:55;7.45;;;2.67;;
23159;SDS011;11748;50.844;4.396;2022-10-23T16:50:21;5.68;;;2.60;;
23159;SDS011;11748;50.844;4.396;2022-10-23T16:52:47;8.90;;;3.22;;
23159;SDS011;11748;50.844;4.396;2022-10-23T16:55:13;9.07;;;3.47;;
23159;SDS011;11748;50.844;4.396;2022-10-23T16:57:39;8.45;;;3.10;;
23159;SDS011;11748;50.844;4.396;2022-10-23T17:00:05;6.65;;;3.20;;
23159;SDS011;11748;50.844;4.396;2022-10-23T17:02:31;6.10;;;2.95;;
23159;SDS011;11748;50.844;4.396;2022-10-23T17:04:57;8.68;;;3.55;;
23159;SDS011;11748;50.844;4.396;2022-10-23T17:07:23;10.52;;;3.33;;
23159;SDS011;11748;50.844;4.396;2022-10-23T17:09:49;9.05;;;3.53;;
23159;SDS011;11748;50.844;4.396;2022-10-23T17:12:15;7.72;;;2.78;;
23159;SDS011;11748;50.844;4.396;2022-10-23T17:14:41;7.95;;;3.10;;
23159;SDS011;11748;50.844;4.396;2022-10-23T17:17:07;11.85;;;3.30;;
23159;SDS011;11748;50.844;4.396;2022-10-23T17:19:33;7.47;;;2.97;;
23159;SDS011;11748;50.844;4.396;2022-10-23T17:22:01;11.35;;;3.05;;
23159;SDS011;11748;50.844;4.396;2022-10-23T17:24:27;9.07;;;2.67;;
23159;SDS011;11748;50.844;4.396;2022-10-23T17:26:53;5.85;;;2.25;;
23159;SDS011;11748;50.844;4.396;2022-10-23T17:29:20;6.60;;;2.50;;
23159;SDS011;11748;50.844;4.396;2022-10-23T17:31:47;5.63;;;2.60;;